createdAt,value
2022-09-04T00:01:45.661Z,4.68
2022-09-04T00:04:25.921Z,5.75
2022-09-04T00:07:06.936Z,6.32
2022-09-04T00:09:44.351Z,5.85
2022-09-04T00:12:13.601Z,5.40
2022-09-04T00:14:46.791Z,5.25
2022-09-04T00:17:21.023Z,3.63
2022-09-04T00:19:56.458Z,3.95
2022-09-04T00:22:35.146Z,3.75
2022-09-04T00:25:13.974Z,5.15
2022-09-04T00:27:46.952Z,7.43
2022-09-04T00:30:20.598Z,3.22
2022-09-04T00:32:56.027Z,4.22
2022-09-04T00:35:31.426Z,5.50
2022-09-04T00:38:04.560Z,4.95
2022-09-04T00:40:35.874Z,4.18
2022-09-04T00:43:32.284Z,5.22
2022-09-04T00:46:22.780Z,7.60
2022-09-04T00:49:09.466Z,4.18
2022-09-04T00:51:48.866Z,4.32
2022-09-04T00:54:29.194Z,6.90
2022-09-04T00:57:16.777Z,7.00
2022-09-04T01:00:05.288Z,8.20
2022-09-04T01:02:44.637Z,4.78
2022-09-04T01:05:27.170Z,7.75
2022-09-04T01:08:09.413Z,6.47
2022-09-04T01:10:51.648Z,6.45
2022-09-04T01:13:28.354Z,6.97
2022-09-04T01:16:02.616Z,7.68
2022-09-04T01:18:39.275Z,3.78
2022-09-04T01:21:30.915Z,4.45
2022-09-04T01:24:34.060Z,4.82
2022-09-04T01:27:10.074Z,3.92
2022-09-04T01:29:48.835Z,4.60
2022-09-04T01:32:30.586Z,6.00
2022-09-04T01:35:10.140Z,3.83
2022-09-04T01:37:49.555Z,4.72
2022-09-04T01:40:35.399Z,4.35
2022-09-04T01:43:11.021Z,4.22
2022-09-04T01:46:05.214Z,3.17
2022-09-04T01:48:41.934Z,6.13
2022-09-04T01:51:19.786Z,3.38
2022-09-04T01:53:57.102Z,7.95
2022-09-04T01:56:34.469Z,5.25
2022-09-04T01:59:12.527Z,3.63
2022-09-04T02:01:53.266Z,3.60
2022-09-04T02:04:29.202Z,4.65
2022-09-04T02:07:06.167Z,3.00
2022-09-04T02:09:42.970Z,2.40
2022-09-04T02:12:25.413Z,8.60
2022-09-04T02:15:03.670Z,5.47
2022-09-04T02:17:45.439Z,3.42
2022-09-04T02:20:22.968Z,4.05
2022-09-04T02:23:00.179Z,3.60
2022-09-04T02:25:32.052Z,3.72
2022-09-04T02:28:15.426Z,2.80
2022-09-04T02:30:55.099Z,4.60
2022-09-04T02:33:32.722Z,4.28
2022-09-04T02:36:06.746Z,5.93
2022-09-04T02:38:44.410Z,3.40
2022-09-04T02:41:21.767Z,4.78
2022-09-04T02:44:04.212Z,4.88
2022-09-04T02:46:45.546Z,5.22
2022-09-04T02:49:20.514Z,4.50
2022-09-04T02:52:02.088Z,4.47
2022-09-04T02:54:49.801Z,3.53
2022-09-04T02:57:41.217Z,3.92
2022-09-04T03:00:15.465Z,2.38
2022-09-04T03:02:56.834Z,4.10
2022-09-04T03:05:29.716Z,2.55
2022-09-04T03:08:05.556Z,2.25
2022-09-04T03:11:28.733Z,4.05
2022-09-04T03:14:07.635Z,4.43
2022-09-04T03:16:41.804Z,3.60
2022-09-04T03:19:19.716Z,4.70
2022-09-04T03:21:53.780Z,4.63
2022-09-04T03:24:27.534Z,3.47
2022-09-04T03:26:59.259Z,3.78
2022-09-04T03:29:37.188Z,3.25
2022-09-04T03:32:16.734Z,3.20
2022-09-04T03:34:55.596Z,5.00
2022-09-04T03:37:37.940Z,3.05
2022-09-04T03:40:31.827Z,3.35
2022-09-04T03:43:26.197Z,3.85
2022-09-04T03:46:00.296Z,4.05
2022-09-04T03:48:38.802Z,3.15
2022-09-04T03:51:24.504Z,3.10
2022-09-04T03:54:02.064Z,3.75
2022-09-04T03:56:48.191Z,3.67
2022-09-04T03:59:29.853Z,2.33
2022-09-04T04:02:07.499Z,3.80
2022-09-04T04:05:11.690Z,2.40
2022-09-04T04:07:48.827Z,2.03
2022-09-04T04:10:33.440Z,2.30
2022-09-04T04:13:31.519Z,3.67
2022-09-04T04:16:23.677Z,3.90
2022-09-04T04:19:07.063Z,2.35
2022-09-04T04:21:55.623Z,2.80
2022-09-04T04:24:40.144Z,2.15
2022-09-04T04:27:25.786Z,2.50
2022-09-04T04:30:08.813Z,2.13
2022-09-04T04:33:04.744Z,3.30
2022-09-04T04:35:44.670Z,2.25
2022-09-04T04:38:46.303Z,2.42
2022-09-04T04:41:53.626Z,3.42
2022-09-04T04:44:50.682Z,9.32
2022-09-04T04:47:27.589Z,3.13
2022-09-04T04:50:09.514Z,3.22
2022-09-04T04:52:53.519Z,3.67
2022-09-04T04:55:32.608Z,3.75
2022-09-04T04:58:27.627Z,5.60
2022-09-04T05:01:07.096Z,3.33
2022-09-04T05:03:49.699Z,3.78
2022-09-04T05:06:27.612Z,3.70
2022-09-04T05:09:08.300Z,2.47
2022-09-04T05:11:44.094Z,1.85
2022-09-04T05:14:32.019Z,2.60
2022-09-04T05:17:10.439Z,3.00
2022-09-04T05:19:50.271Z,5.43
2022-09-04T05:22:27.584Z,4.68
2022-09-04T05:25:09.223Z,4.75
2022-09-04T05:30:19.635Z,6.53
2022-09-04T05:32:57.595Z,5.30
2022-09-04T05:35:35.244Z,3.85
2022-09-04T05:38:12.741Z,3.33
2022-09-04T05:40:59.406Z,2.55
2022-09-04T05:43:40.210Z,2.42
2022-09-04T05:46:18.993Z,2.55
2022-09-04T05:48:57.767Z,3.53
2022-09-04T05:52:15.946Z,4.63
2022-09-04T05:55:13.904Z,3.22
2022-09-04T05:57:58.437Z,3.30
2022-09-04T06:00:33.495Z,2.78
2022-09-04T06:03:37.293Z,4.03
2022-09-04T06:06:12.654Z,2.55
2022-09-04T06:09:03.310Z,3.53
2022-09-04T06:11:42.440Z,4.38
2022-09-04T06:14:26.858Z,2.90
2022-09-04T06:17:11.993Z,1.30
2022-09-04T06:20:06.139Z,1.05
2022-09-04T06:22:58.392Z,1.38
2022-09-04T06:25:57.208Z,2.25
2022-09-04T06:29:05.696Z,2.22
2022-09-04T06:31:51.957Z,1.70
2022-09-04T06:34:35.812Z,5.07
2022-09-04T06:37:16.882Z,1.35
2022-09-04T06:39:59.147Z,3.25
2022-09-04T06:42:38.036Z,0.85
2022-09-04T06:45:22.412Z,1.30
2022-09-04T06:48:09.601Z,0.45
2022-09-04T06:50:50.363Z,2.15
2022-09-04T06:53:29.065Z,2.70
2022-09-04T06:56:13.494Z,0.47
2022-09-04T06:59:01.776Z,5.88
2022-09-04T07:01:40.888Z,1.20
2022-09-04T07:07:00.072Z,2.10
2022-09-04T07:09:36.405Z,0.45
2022-09-04T07:12:24.759Z,1.10
2022-09-04T07:15:31.852Z,0.68
2022-09-04T07:18:13.837Z,1.48
2022-09-04T07:20:53.145Z,0.40
2022-09-04T07:23:32.696Z,1.92
2022-09-04T07:26:14.452Z,0.57
2022-09-04T07:29:08.073Z,0.85
2022-09-04T07:31:40.847Z,0.55
2022-09-04T07:34:17.753Z,0.43
2022-09-04T07:36:56.593Z,1.80
2022-09-04T07:39:37.395Z,0.38
2022-09-04T07:42:14.983Z,1.23
2022-09-04T07:44:54.700Z,0.40
2022-09-04T07:47:30.580Z,0.40
2022-09-04T07:50:06.980Z,0.70
2022-09-04T07:53:06.310Z,2.10
2022-09-04T07:55:42.603Z,0.20
2022-09-04T07:58:45.030Z,0.30
2022-09-04T08:01:33.549Z,0.63
2022-09-04T08:04:27.851Z,0.95
2022-09-04T08:07:00.540Z,1.30
2022-09-04T08:09:43.554Z,0.30
2022-09-04T08:12:42.774Z,0.20
2022-09-04T08:15:20.077Z,0.40
2022-09-04T08:18:20.294Z,0.80
2022-09-04T08:20:56.914Z,1.00
2022-09-04T08:23:41.984Z,3.45
2022-09-04T08:26:21.011Z,2.67
2022-09-04T08:29:05.455Z,0.57
2022-09-04T08:31:42.431Z,0.65
2022-09-04T08:34:35.447Z,1.35
2022-09-04T08:37:17.456Z,0.25
2022-09-04T08:40:04.262Z,1.40
2022-09-04T08:43:10.905Z,1.08
2022-09-04T08:46:18.093Z,0.30
2022-09-04T08:49:26.492Z,1.75
2022-09-04T08:52:22.479Z,0.20
2022-09-04T08:55:07.420Z,3.47
2022-09-04T08:58:23.771Z,1.30
2022-09-04T09:01:28.315Z,0.20
2022-09-04T09:04:27.408Z,1.38
2022-09-04T09:10:19.220Z,1.70
2022-09-04T09:13:20.936Z,1.60
2022-09-04T09:15:59.641Z,0.75
2022-09-04T09:18:57.726Z,1.13
2022-09-04T09:21:43.256Z,0.60
2022-09-04T09:24:53.225Z,0.50
2022-09-04T09:27:51.218Z,1.98
2022-09-04T09:30:28.495Z,0.20
2022-09-04T09:33:39.704Z,3.10
2022-09-04T09:36:32.655Z,0.93
2022-09-04T09:39:38.888Z,2.17
2022-09-04T09:42:48.582Z,4.03
2022-09-04T09:45:42.407Z,1.17
2022-09-04T09:48:59.133Z,0.30
2022-09-04T09:52:01.203Z,1.85
2022-09-04T09:55:02.552Z,2.15
2022-09-04T09:58:22.846Z,0.95
2022-09-04T10:01:09.605Z,0.40
2022-09-04T10:04:11.795Z,1.95
2022-09-04T10:07:05.374Z,0.40
2022-09-04T10:10:08.343Z,0.10
2022-09-04T10:13:13.868Z,0.40
2022-09-04T10:16:03.381Z,3.20
2022-09-04T10:19:28.467Z,1.13
2022-09-04T10:22:34.805Z,0.20
2022-09-04T10:25:35.322Z,0.80
2022-09-04T10:28:27.906Z,0.25
2022-09-04T10:31:27.699Z,2.00
2022-09-04T10:34:15.965Z,0.20
2022-09-04T10:36:55.094Z,1.48
2022-09-04T10:39:51.723Z,1.27
2022-09-04T10:42:35.702Z,0.30
2022-09-04T10:45:22.711Z,3.35
2022-09-04T10:48:18.361Z,0.63
2022-09-04T10:51:21.364Z,0.98
2022-09-04T10:54:45.087Z,1.35
2022-09-04T10:57:34.709Z,3.63
2022-09-04T11:00:08.040Z,2.13
2022-09-04T11:03:15.800Z,0.20
2022-09-04T11:06:25.976Z,1.83
2022-09-04T11:09:28.547Z,0.80
2022-09-04T11:12:40.576Z,2.28
2022-09-04T11:15:26.037Z,3.08
2022-09-04T11:18:24.154Z,1.45
2022-09-04T11:21:21.790Z,2.83
2022-09-04T11:24:29.553Z,1.13
2022-09-04T11:27:31.605Z,2.25
2022-09-04T11:30:07.354Z,4.22
2022-09-04T11:33:11.260Z,3.05
2022-09-04T11:36:09.643Z,1.35
2022-09-04T11:39:08.848Z,2.22
2022-09-04T11:42:08.041Z,0.38
2022-09-04T11:45:30.212Z,0.50
2022-09-04T11:48:38.093Z,0.50
2022-09-04T11:51:40.762Z,1.55
2022-09-04T11:54:38.935Z,0.50
2022-09-04T11:57:16.883Z,1.88
2022-09-04T12:00:07.289Z,3.20
2022-09-04T12:03:11.922Z,0.77
2022-09-04T12:05:51.425Z,0.80
2022-09-04T12:08:36.097Z,0.10
2022-09-04T12:11:40.724Z,1.58
2022-09-04T12:14:22.214Z,1.63
2022-09-04T12:17:23.789Z,1.40
2022-09-04T12:20:24.325Z,2.05
2022-09-04T12:23:22.434Z,1.95
2022-09-04T12:26:22.166Z,4.05
2022-09-04T12:29:31.070Z,1.55
2022-09-04T12:32:21.863Z,0.90
2022-09-04T12:35:12.586Z,1.00
2022-09-04T12:38:03.559Z,0.30
2022-09-04T12:40:41.799Z,5.68
2022-09-04T12:43:23.017Z,6.22
2022-09-04T12:46:00.784Z,1.92
2022-09-04T12:48:42.815Z,2.20
2022-09-04T12:51:16.833Z,1.67
2022-09-04T12:53:58.503Z,2.30
2022-09-04T12:56:44.064Z,1.55
2022-09-04T12:59:42.097Z,1.25
2022-09-04T13:02:26.204Z,0.55
2022-09-04T13:05:05.133Z,2.08
2022-09-04T13:07:48.266Z,1.75
2022-09-04T13:10:24.755Z,0.45
2022-09-04T13:13:03.608Z,0.20
2022-09-04T13:15:42.104Z,0.40
2022-09-04T13:18:24.318Z,0.75
2022-09-04T13:21:01.854Z,0.63
2022-09-04T13:23:57.424Z,3.33
2022-09-04T13:26:38.483Z,0.47
2022-09-04T13:29:19.753Z,0.32
2022-09-04T13:32:05.547Z,3.35
2022-09-04T13:34:48.626Z,1.48
2022-09-04T13:37:26.003Z,3.33
2022-09-04T13:40:30.844Z,1.33
2022-09-04T13:43:41.771Z,0.60
2022-09-04T13:46:17.354Z,1.63
2022-09-04T13:48:52.169Z,0.75
2022-09-04T13:51:25.358Z,2.38
2022-09-04T13:54:04.982Z,1.95
2022-09-04T13:56:40.471Z,0.93
2022-09-04T13:59:12.086Z,0.20
2022-09-04T14:01:46.339Z,0.22
2022-09-04T14:04:26.710Z,5.68
2022-09-04T14:07:06.342Z,0.50
2022-09-04T14:09:43.134Z,3.25
2022-09-04T14:12:34.444Z,1.13
2022-09-04T14:15:49.171Z,0.10
2022-09-04T14:18:30.102Z,0.20
2022-09-04T14:21:05.599Z,1.33
2022-09-04T14:23:46.205Z,0.30
2022-09-04T14:26:24.449Z,1.48
2022-09-04T14:29:20.430Z,1.13
2022-09-04T14:32:04.464Z,3.05
2022-09-04T14:34:44.980Z,0.30
2022-09-04T14:37:36.213Z,0.30
2022-09-04T14:40:14.856Z,0.60
2022-09-04T14:42:49.371Z,0.47
2022-09-04T14:45:32.783Z,0.32
2022-09-04T14:48:05.605Z,0.90
2022-09-04T14:50:46.947Z,0.43
2022-09-04T14:53:24.282Z,0.45
2022-09-04T14:56:21.568Z,0.13
2022-09-04T14:58:57.168Z,0.45
2022-09-04T15:01:26.744Z,0.52
2022-09-04T15:06:44.582Z,1.90
2022-09-04T15:09:31.037Z,1.05
2022-09-04T15:12:26.591Z,0.50
2022-09-04T15:15:04.734Z,0.52
2022-09-04T15:17:40.049Z,0.60
2022-09-04T15:20:17.155Z,0.40
2022-09-04T15:22:57.963Z,0.52
2022-09-04T15:25:58.850Z,3.63
2022-09-04T15:28:38.731Z,1.20
2022-09-04T15:31:17.053Z,0.47
2022-09-04T15:36:21.028Z,1.55
2022-09-04T15:38:53.345Z,0.50
2022-09-04T15:41:36.020Z,1.38
2022-09-04T15:44:16.253Z,4.28
2022-09-04T15:46:49.910Z,1.17
2022-09-04T15:49:30.153Z,0.85
2022-09-04T15:52:12.791Z,0.80
2022-09-04T15:55:11.522Z,0.15
2022-09-04T15:58:01.997Z,1.90
2022-09-04T16:00:32.977Z,3.25
2022-09-04T16:03:12.356Z,4.97
2022-09-04T16:05:45.243Z,1.55
2022-09-04T16:08:28.241Z,2.38
2022-09-04T16:11:02.507Z,0.82
2022-09-04T16:13:41.807Z,1.75
2022-09-04T16:16:19.097Z,2.72
2022-09-04T16:18:58.646Z,3.35
2022-09-04T16:21:40.857Z,1.85
2022-09-04T16:24:16.375Z,0.40
2022-09-04T16:26:50.535Z,0.82
2022-09-04T16:29:36.072Z,0.30
2022-09-04T16:32:12.802Z,0.68
2022-09-04T16:34:50.142Z,0.22
2022-09-04T16:37:26.155Z,0.47
2022-09-04T16:40:24.509Z,0.40
2022-09-04T16:43:00.955Z,2.63
2022-09-04T16:45:37.479Z,1.52
2022-09-04T16:48:34.908Z,0.43
2022-09-04T16:51:09.925Z,4.55
2022-09-04T16:54:08.231Z,0.73
2022-09-04T16:56:40.680Z,1.63
2022-09-04T16:59:24.853Z,1.63
2022-09-04T17:02:01.918Z,0.55
2022-09-04T17:04:44.252Z,1.35
2022-09-04T17:07:19.057Z,1.60
2022-09-04T17:09:56.020Z,0.80
2022-09-04T17:12:33.858Z,1.95
2022-09-04T17:15:12.062Z,2.05
2022-09-04T17:17:45.854Z,1.90
2022-09-04T17:20:29.180Z,1.20
2022-09-04T17:28:57.951Z,0.85
2022-09-04T17:29:12.278Z,1.75
2022-09-04T17:31:55.965Z,1.77
2022-09-04T17:40:42.493Z,1.25
2022-09-04T17:40:50.562Z,3.33
2022-09-04T17:41:35.802Z,4.43
2022-09-04T17:43:58.647Z,1.33
2022-09-04T17:46:34.804Z,2.78
2022-09-04T17:49:14.263Z,6.40
2022-09-04T17:51:57.629Z,2.28
2022-09-04T17:54:31.463Z,4.45
2022-09-04T17:57:11.276Z,5.00
2022-09-04T17:59:45.882Z,11.23
2022-09-04T18:02:19.310Z,3.90
2022-09-04T18:04:54.832Z,6.15
2022-09-04T18:08:07.452Z,5.95
2022-09-04T18:10:31.546Z,3.15
2022-09-04T18:16:07.507Z,5.38
2022-09-04T18:18:40.465Z,4.28
2022-09-04T18:21:17.608Z,3.33
2022-09-04T18:23:57.863Z,6.97
2022-09-04T18:26:40.350Z,6.93
2022-09-04T18:31:37.067Z,4.25
2022-09-04T18:37:11.744Z,3.00
2022-09-04T18:37:23.605Z,4.18
2022-09-04T18:38:35.851Z,3.03
2022-09-04T18:46:06.568Z,5.90
2022-09-04T18:50:24.715Z,6.20
2022-09-04T18:50:28.449Z,8.45
2022-09-04T18:50:34.464Z,6.90
2022-09-04T18:53:07.468Z,12.88
2022-09-04T18:55:44.293Z,11.93
2022-09-04T18:58:40.147Z,7.38
2022-09-04T19:01:15.781Z,7.68
2022-09-04T19:03:53.817Z,5.78
2022-09-04T19:06:32.858Z,5.22
2022-09-04T19:09:10.797Z,3.53
2022-09-04T19:11:47.213Z,3.05
2022-09-04T19:14:21.990Z,4.00
2022-09-04T19:16:55.882Z,4.75
2022-09-04T19:19:31.512Z,3.80
2022-09-04T19:22:09.363Z,4.75
2022-09-04T19:24:49.404Z,4.72
2022-09-04T19:27:28.477Z,7.23
2022-09-04T19:30:18.906Z,9.80
2022-09-04T19:33:06.304Z,13.23
2022-09-04T19:35:39.719Z,8.95
2022-09-04T19:42:09.395Z,6.13
2022-09-04T19:46:07.335Z,6.38
2022-09-04T19:46:24.882Z,5.80
2022-09-04T19:47:27.018Z,5.88
2022-09-04T19:53:19.745Z,3.72
2022-09-04T19:53:29.945Z,4.40
2022-09-04T19:55:48.917Z,4.63
2022-09-04T19:58:22.831Z,4.75
2022-09-04T20:00:59.487Z,4.18
2022-09-04T20:03:35.217Z,2.50
2022-09-04T20:06:21.778Z,4.82
2022-09-04T20:08:58.193Z,3.45
2022-09-04T20:11:36.092Z,4.25
2022-09-04T20:14:14.618Z,1.52
2022-09-04T20:16:53.943Z,2.72
2022-09-04T20:19:28.932Z,4.22
2022-09-04T20:22:02.570Z,2.92
2022-09-04T20:24:40.542Z,2.85
2022-09-04T20:27:18.444Z,2.10
2022-09-04T20:29:55.294Z,3.75
2022-09-04T20:32:28.552Z,3.03
2022-09-04T20:35:13.437Z,4.85
2022-09-04T20:37:46.385Z,3.65
2022-09-04T20:40:27.486Z,3.78
2022-09-04T20:43:12.710Z,3.83
2022-09-04T20:48:34.541Z,2.30
2022-09-04T20:52:53.680Z,2.78
2022-09-04T20:52:54.893Z,4.32
2022-09-04T20:54:56.102Z,2.58
2022-09-04T21:02:05.170Z,4.07
2022-09-04T21:03:10.760Z,3.85
2022-09-04T21:03:35.420Z,2.05
2022-09-04T21:06:22.931Z,5.28
2022-09-04T21:09:05.570Z,5.72
2022-09-04T21:11:41.530Z,3.92
2022-09-04T21:14:18.990Z,3.13
2022-09-04T21:17:33.525Z,6.70
2022-09-04T21:20:21.478Z,3.65
2022-09-04T21:23:20.756Z,4.63
2022-09-04T21:26:00.247Z,3.63
2022-09-04T21:29:10.988Z,5.00
2022-09-04T21:32:25.065Z,5.20
2022-09-04T21:35:04.682Z,4.38
2022-09-04T21:40:51.500Z,7.90
2022-09-04T21:43:52.489Z,5.15
2022-09-04T21:46:38.252Z,4.85
2022-09-04T21:49:26.583Z,6.15
2022-09-04T21:52:20.315Z,5.78
2022-09-04T21:57:08.998Z,4.43
2022-09-04T22:02:35.689Z,6.07
2022-09-04T22:02:40.142Z,8.18
2022-09-04T22:04:47.400Z,4.63
2022-09-04T22:10:22.995Z,6.32
2022-09-04T22:13:33.615Z,7.60
2022-09-04T22:13:48.112Z,4.78
2022-09-04T22:16:34.437Z,4.60
2022-09-04T22:19:42.300Z,5.13
2022-09-04T22:22:29.898Z,4.72
2022-09-04T22:25:13.630Z,5.85
2022-09-04T22:28:35.669Z,6.90
2022-09-04T22:31:29.641Z,4.13
2022-09-04T22:34:40.646Z,6.28
2022-09-04T22:37:42.249Z,4.88
2022-09-04T22:40:31.653Z,4.47
2022-09-04T22:43:12.954Z,3.88
2022-09-04T22:46:06.015Z,9.82
2022-09-04T22:49:12.017Z,4.57
2022-09-04T22:52:10.148Z,4.72
2022-09-04T22:54:57.405Z,6.15
2022-09-04T22:57:44.007Z,3.97
2022-09-04T23:00:16.920Z,5.63
2022-09-04T23:03:10.460Z,4.63
2022-09-04T23:06:23.476Z,3.50
2022-09-04T23:13:42.931Z,4.07
2022-09-04T23:13:56.673Z,3.45
2022-09-04T23:15:28.858Z,7.40
2022-09-04T23:20:19.016Z,3.70
2022-09-04T23:26:50.176Z,3.55
2022-09-04T23:26:51.087Z,3.65
2022-09-04T23:28:02.657Z,5.85
2022-09-04T23:31:03.443Z,3.25
2022-09-04T23:34:14.072Z,1.70
2022-09-04T23:37:29.213Z,3.38
2022-09-04T23:40:30.998Z,3.58
2022-09-04T23:43:49.868Z,4.05
2022-09-04T23:47:01.867Z,3.58
2022-09-04T23:50:02.315Z,4.53
2022-09-04T23:53:03.820Z,2.95
2022-09-04T23:56:12.199Z,4.20
2022-09-04T23:59:30.917Z,2.17
